sensor_id;sensor_type;location;lat;lon;timestamp;temperature;humidity
56046;DHT22;41913;51.030;3.706;2023-04-29T00:01:30;18.80;85.70
56046;DHT22;41913;51.030;3.706;2023-04-29T00:03:56;18.80;85.70
56046;DHT22;41913;51.030;3.706;2023-04-29T00:06:22;18.80;85.60
56046;DHT22;41913;51.030;3.706;2023-04-29T00:08:48;18.80;85.60
56046;DHT22;41913;51.030;3.706;2023-04-29T00:11:15;18.80;85.60
56046;DHT22;41913;51.030;3.706;2023-04-29T00:13:42;18.80;85.60
56046;DHT22;41913;51.030;3.706;2023-04-29T00:16:07;18.80;85.60
56046;DHT22;41913;51.030;3.706;2023-04-29T00:18:36;18.80;85.60
56046;DHT22;41913;51.030;3.706;2023-04-29T00:21:03;18.80;85.60
56046;DHT22;41913;51.030;3.706;2023-04-29T00:23:33;18.80;85.60
56046;DHT22;41913;51.030;3.706;2023-04-29T00:25:59;18.70;85.50
56046;DHT22;41913;51.030;3.706;2023-04-29T00:28:25;18.80;85.50
56046;DHT22;41913;51.030;3.706;2023-04-29T00:30:52;18.80;85.50
56046;DHT22;41913;51.030;3.706;2023-04-29T00:33:18;18.80;85.50
56046;DHT22;41913;51.030;3.706;2023-04-29T00:35:45;18.80;85.50
56046;DHT22;41913;51.030;3.706;2023-04-29T00:38:12;18.80;85.50
56046;DHT22;41913;51.030;3.706;2023-04-29T00:40:38;18.80;85.50
56046;DHT22;41913;51.030;3.706;2023-04-29T00:43:04;18.80;85.40
56046;DHT22;41913;51.030;3.706;2023-04-29T00:45:31;18.70;85.40
56046;DHT22;41913;51.030;3.706;2023-04-29T00:47:56;18.70;85.30
56046;DHT22;41913;51.030;3.706;2023-04-29T00:50:22;18.80;85.40
56046;DHT22;41913;51.030;3.706;2023-04-29T00:52:48;18.80;85.40
56046;DHT22;41913;51.030;3.706;2023-04-29T00:55:13;18.80;85.30
56046;DHT22;41913;51.030;3.706;2023-04-29T00:57:39;18.80;85.30
56046;DHT22;41913;51.030;3.706;2023-04-29T01:00:06;18.70;85.20
56046;DHT22;41913;51.030;3.706;2023-04-29T01:02:33;18.80;85.30
56046;DHT22;41913;51.030;3.706;2023-04-29T01:04:59;18.70;85.20
56046;DHT22;41913;51.030;3.706;2023-04-29T01:10:19;18.70;85.20
56046;DHT22;41913;51.030;3.706;2023-04-29T01:13:06;18.70;85.10
56046;DHT22;41913;51.030;3.706;2023-04-29T01:18:52;18.70;85.00
56046;DHT22;41913;51.030;3.706;2023-04-29T01:21:19;18.70;85.00
56046;DHT22;41913;51.030;3.706;2023-04-29T01:23:45;18.70;85.00
56046;DHT22;41913;51.030;3.706;2023-04-29T01:26:11;18.70;85.00
56046;DHT22;41913;51.030;3.706;2023-04-29T01:31:30;18.70;85.00
56046;DHT22;41913;51.030;3.706;2023-04-29T01:34:09;18.70;85.00
56046;DHT22;41913;51.030;3.706;2023-04-29T01:44:14;18.70;84.90
56046;DHT22;41913;51.030;3.706;2023-04-29T01:46:45;18.70;84.90
56046;DHT22;41913;51.030;3.706;2023-04-29T01:49:14;18.70;84.90
56046;DHT22;41913;51.030;3.706;2023-04-29T01:51:41;18.70;84.90
56046;DHT22;41913;51.030;3.706;2023-04-29T01:54:06;18.70;84.90
56046;DHT22;41913;51.030;3.706;2023-04-29T01:56:32;18.70;84.90
56046;DHT22;41913;51.030;3.706;2023-04-29T01:58:59;18.70;84.90
56046;DHT22;41913;51.030;3.706;2023-04-29T02:01:25;18.70;85.40
56046;DHT22;41913;51.030;3.706;2023-04-29T02:03:51;18.70;84.90
56046;DHT22;41913;51.030;3.706;2023-04-29T02:06:16;18.70;84.90
56046;DHT22;41913;51.030;3.706;2023-04-29T02:08:43;18.70;84.90
56046;DHT22;41913;51.030;3.706;2023-04-29T02:11:09;18.70;84.80
56046;DHT22;41913;51.030;3.706;2023-04-29T02:13:35;18.70;84.80
56046;DHT22;41913;51.030;3.706;2023-04-29T02:16:12;18.70;84.80
56046;DHT22;41913;51.030;3.706;2023-04-29T02:18:39;18.70;84.80
56046;DHT22;41913;51.030;3.706;2023-04-29T02:21:06;18.60;84.80
56046;DHT22;41913;51.030;3.706;2023-04-29T02:23:33;18.60;84.70
56046;DHT22;41913;51.030;3.706;2023-04-29T02:26:01;18.60;84.70
56046;DHT22;41913;51.030;3.706;2023-04-29T02:28:31;18.60;84.70
56046;DHT22;41913;51.030;3.706;2023-04-29T02:30:59;18.70;84.70
56046;DHT22;41913;51.030;3.706;2023-04-29T02:33:27;18.60;84.70
56046;DHT22;41913;51.030;3.706;2023-04-29T02:35:53;18.60;84.70
56046;DHT22;41913;51.030;3.706;2023-04-29T02:38:19;18.60;84.70
56046;DHT22;41913;51.030;3.706;2023-04-29T02:40:46;18.60;84.70
56046;DHT22;41913;51.030;3.706;2023-04-29T02:43:13;18.60;84.70
56046;DHT22;41913;51.030;3.706;2023-04-29T02:45:40;18.60;84.60
56046;DHT22;41913;51.030;3.706;2023-04-29T02:48:06;18.60;84.60
56046;DHT22;41913;51.030;3.706;2023-04-29T02:50:34;18.60;84.60
56046;DHT22;41913;51.030;3.706;2023-04-29T02:53:00;18.60;84.60
56046;DHT22;41913;51.030;3.706;2023-04-29T02:55:25;18.60;84.60
56046;DHT22;41913;51.030;3.706;2023-04-29T02:57:52;18.60;84.60
56046;DHT22;41913;51.030;3.706;2023-04-29T03:00:18;18.60;84.60
56046;DHT22;41913;51.030;3.706;2023-04-29T03:02:44;18.60;84.60
56046;DHT22;41913;51.030;3.706;2023-04-29T03:05:12;18.60;84.60
56046;DHT22;41913;51.030;3.706;2023-04-29T03:07:40;18.60;84.60
56046;DHT22;41913;51.030;3.706;2023-04-29T03:10:06;18.60;84.60
56046;DHT22;41913;51.030;3.706;2023-04-29T03:12:32;18.60;84.60
56046;DHT22;41913;51.030;3.706;2023-04-29T03:15:00;18.60;84.60
56046;DHT22;41913;51.030;3.706;2023-04-29T03:17:25;18.60;84.60
56046;DHT22;41913;51.030;3.706;2023-04-29T03:19:51;18.60;85.10
56046;DHT22;41913;51.030;3.706;2023-04-29T03:22:20;18.60;84.50
56046;DHT22;41913;51.030;3.706;2023-04-29T03:24:46;18.60;84.50
56046;DHT22;41913;51.030;3.706;2023-04-29T03:27:12;18.60;84.50
56046;DHT22;41913;51.030;3.706;2023-04-29T03:29:38;18.60;84.50
56046;DHT22;41913;51.030;3.706;2023-04-29T03:32:06;18.60;84.50
56046;DHT22;41913;51.030;3.706;2023-04-29T03:34:31;18.60;84.50
56046;DHT22;41913;51.030;3.706;2023-04-29T03:36:59;18.60;84.50
56046;DHT22;41913;51.030;3.706;2023-04-29T03:39:25;18.60;84.50
56046;DHT22;41913;51.030;3.706;2023-04-29T03:41:56;18.60;84.50
56046;DHT22;41913;51.030;3.706;2023-04-29T03:44:21;18.60;84.50
56046;DHT22;41913;51.030;3.706;2023-04-29T03:46:48;18.60;84.40
56046;DHT22;41913;51.030;3.706;2023-04-29T03:49:14;18.60;84.40
56046;DHT22;41913;51.030;3.706;2023-04-29T03:51:40;18.50;84.40
56046;DHT22;41913;51.030;3.706;2023-04-29T03:54:09;18.60;84.40
56046;DHT22;41913;51.030;3.706;2023-04-29T03:56:36;18.60;84.40
56046;DHT22;41913;51.030;3.706;2023-04-29T03:59:02;18.60;84.40
56046;DHT22;41913;51.030;3.706;2023-04-29T04:01:28;18.60;84.40
56046;DHT22;41913;51.030;3.706;2023-04-29T04:03:56;18.60;84.40
56046;DHT22;41913;51.030;3.706;2023-04-29T04:06:22;18.60;84.40
56046;DHT22;41913;51.030;3.706;2023-04-29T04:08:48;18.50;84.40
56046;DHT22;41913;51.030;3.706;2023-04-29T04:11:16;18.60;84.40
56046;DHT22;41913;51.030;3.706;2023-04-29T04:13:42;18.50;84.30
56046;DHT22;41913;51.030;3.706;2023-04-29T04:16:14;18.50;84.30
56046;DHT22;41913;51.030;3.706;2023-04-29T04:18:39;18.50;84.30
56046;DHT22;41913;51.030;3.706;2023-04-29T04:21:10;18.50;84.30
56046;DHT22;41913;51.030;3.706;2023-04-29T04:23:37;18.50;84.30
56046;DHT22;41913;51.030;3.706;2023-04-29T04:26:06;18.50;84.30
56046;DHT22;41913;51.030;3.706;2023-04-29T04:28:32;18.50;84.30
56046;DHT22;41913;51.030;3.706;2023-04-29T04:30:58;18.50;84.30
56046;DHT22;41913;51.030;3.706;2023-04-29T04:33:25;18.50;84.20
56046;DHT22;41913;51.030;3.706;2023-04-29T04:35:52;18.50;84.20
56046;DHT22;41913;51.030;3.706;2023-04-29T04:38:18;18.50;84.30
56046;DHT22;41913;51.030;3.706;2023-04-29T04:40:45;18.50;84.20
56046;DHT22;41913;51.030;3.706;2023-04-29T04:43:12;18.50;84.20
56046;DHT22;41913;51.030;3.706;2023-04-29T04:45:38;18.50;84.20
56046;DHT22;41913;51.030;3.706;2023-04-29T04:48:03;18.50;84.20
56046;DHT22;41913;51.030;3.706;2023-04-29T04:50:29;18.50;84.20
56046;DHT22;41913;51.030;3.706;2023-04-29T04:52:55;18.50;84.10
56046;DHT22;41913;51.030;3.706;2023-04-29T04:55:21;18.50;84.10
56046;DHT22;41913;51.030;3.706;2023-04-29T04:57:50;18.50;84.10
56046;DHT22;41913;51.030;3.706;2023-04-29T05:00:15;18.50;84.10
56046;DHT22;41913;51.030;3.706;2023-04-29T05:02:42;18.50;84.00
56046;DHT22;41913;51.030;3.706;2023-04-29T05:05:11;18.50;84.10
56046;DHT22;41913;51.030;3.706;2023-04-29T05:07:37;18.50;84.10
56046;DHT22;41913;51.030;3.706;2023-04-29T05:10:04;18.50;84.10
56046;DHT22;41913;51.030;3.706;2023-04-29T05:12:32;18.50;84.10
56046;DHT22;41913;51.030;3.706;2023-04-29T05:15:01;18.50;84.10
56046;DHT22;41913;51.030;3.706;2023-04-29T05:17:28;18.50;84.10
56046;DHT22;41913;51.030;3.706;2023-04-29T05:19:55;18.50;84.00
56046;DHT22;41913;51.030;3.706;2023-04-29T05:22:20;18.50;84.00
56046;DHT22;41913;51.030;3.706;2023-04-29T05:24:48;18.40;83.90
56046;DHT22;41913;51.030;3.706;2023-04-29T05:27:17;18.50;84.00
56046;DHT22;41913;51.030;3.706;2023-04-29T05:29:46;18.50;83.90
56046;DHT22;41913;51.030;3.706;2023-04-29T05:32:12;18.50;83.90
56046;DHT22;41913;51.030;3.706;2023-04-29T05:34:41;18.50;83.90
56046;DHT22;41913;51.030;3.706;2023-04-29T05:37:06;18.50;83.90
56046;DHT22;41913;51.030;3.706;2023-04-29T05:39:33;18.50;83.80
56046;DHT22;41913;51.030;3.706;2023-04-29T05:42:00;18.50;83.80
56046;DHT22;41913;51.030;3.706;2023-04-29T05:44:28;18.50;84.40
56046;DHT22;41913;51.030;3.706;2023-04-29T05:46:54;18.50;83.80
56046;DHT22;41913;51.030;3.706;2023-04-29T05:49:20;18.50;83.80
56046;DHT22;41913;51.030;3.706;2023-04-29T05:51:45;18.40;83.70
56046;DHT22;41913;51.030;3.706;2023-04-29T05:54:12;18.40;83.70
56046;DHT22;41913;51.030;3.706;2023-04-29T05:56:41;18.40;83.70
56046;DHT22;41913;51.030;3.706;2023-04-29T05:59:09;18.50;83.80
56046;DHT22;41913;51.030;3.706;2023-04-29T06:01:35;18.40;83.80
56046;DHT22;41913;51.030;3.706;2023-04-29T06:04:01;18.50;83.90
56046;DHT22;41913;51.030;3.706;2023-04-29T06:06:27;18.40;83.80
56046;DHT22;41913;51.030;3.706;2023-04-29T06:08:56;18.40;83.80
56046;DHT22;41913;51.030;3.706;2023-04-29T06:11:24;18.40;83.90
56046;DHT22;41913;51.030;3.706;2023-04-29T06:13:53;18.40;83.90
56046;DHT22;41913;51.030;3.706;2023-04-29T06:16:19;18.40;83.90
56046;DHT22;41913;51.030;3.706;2023-04-29T06:18:44;18.40;84.00
56046;DHT22;41913;51.030;3.706;2023-04-29T06:21:10;18.50;85.10
56046;DHT22;41913;51.030;3.706;2023-04-29T06:23:36;18.50;85.30
56046;DHT22;41913;51.030;3.706;2023-04-29T06:26:03;18.50;85.10
56046;DHT22;41913;51.030;3.706;2023-04-29T06:28:30;18.50;85.00
56046;DHT22;41913;51.030;3.706;2023-04-29T06:30:57;18.50;84.90
56046;DHT22;41913;51.030;3.706;2023-04-29T06:33:25;18.50;85.00
56046;DHT22;41913;51.030;3.706;2023-04-29T06:35:51;18.50;85.00
56046;DHT22;41913;51.030;3.706;2023-04-29T06:38:16;18.50;85.10
56046;DHT22;41913;51.030;3.706;2023-04-29T06:40:42;18.50;85.00
56046;DHT22;41913;51.030;3.706;2023-04-29T06:43:08;18.50;85.00
56046;DHT22;41913;51.030;3.706;2023-04-29T06:45:34;18.50;85.00
56046;DHT22;41913;51.030;3.706;2023-04-29T06:48:00;18.50;85.00
56046;DHT22;41913;51.030;3.706;2023-04-29T06:50:26;18.50;85.10
56046;DHT22;41913;51.030;3.706;2023-04-29T06:52:52;18.50;85.20
56046;DHT22;41913;51.030;3.706;2023-04-29T06:55:18;18.60;85.30
56046;DHT22;41913;51.030;3.706;2023-04-29T06:57:44;18.60;85.30
56046;DHT22;41913;51.030;3.706;2023-04-29T07:00:10;18.70;85.40
56046;DHT22;41913;51.030;3.706;2023-04-29T07:02:36;18.70;85.40
56046;DHT22;41913;51.030;3.706;2023-04-29T07:05:04;18.80;85.60
56046;DHT22;41913;51.030;3.706;2023-04-29T07:07:29;19.00;85.90
56046;DHT22;41913;51.030;3.706;2023-04-29T07:09:55;19.10;86.10
56046;DHT22;41913;51.030;3.706;2023-04-29T07:12:23;19.20;86.30
56046;DHT22;41913;51.030;3.706;2023-04-29T07:14:48;19.20;85.80
56046;DHT22;41913;51.030;3.706;2023-04-29T07:17:16;19.10;85.50
56046;DHT22;41913;51.030;3.706;2023-04-29T07:19:41;19.10;85.20
56046;DHT22;41913;51.030;3.706;2023-04-29T07:22:07;19.00;84.80
56046;DHT22;41913;51.030;3.706;2023-04-29T07:24:33;18.90;84.60
56046;DHT22;41913;51.030;3.706;2023-04-29T07:26:59;18.90;84.20
56046;DHT22;41913;51.030;3.706;2023-04-29T07:29:24;18.80;84.10
56046;DHT22;41913;51.030;3.706;2023-04-29T07:31:50;18.80;84.10
56046;DHT22;41913;51.030;3.706;2023-04-29T07:34:16;18.80;84.00
56046;DHT22;41913;51.030;3.706;2023-04-29T07:36:41;18.80;83.90
56046;DHT22;41913;51.030;3.706;2023-04-29T07:39:07;18.80;83.90
56046;DHT22;41913;51.030;3.706;2023-04-29T07:41:33;18.70;83.50
56046;DHT22;41913;51.030;3.706;2023-04-29T07:43:59;18.70;83.30
56046;DHT22;41913;51.030;3.706;2023-04-29T07:46:24;18.60;83.30
56046;DHT22;41913;51.030;3.706;2023-04-29T07:48:50;18.60;83.30
56046;DHT22;41913;51.030;3.706;2023-04-29T07:51:17;18.60;83.20
56046;DHT22;41913;51.030;3.706;2023-04-29T07:53:42;18.60;83.10
56046;DHT22;41913;51.030;3.706;2023-04-29T07:56:08;18.60;82.90
56046;DHT22;41913;51.030;3.706;2023-04-29T07:58:34;18.60;82.80
56046;DHT22;41913;51.030;3.706;2023-04-29T08:01:07;18.50;82.40
56046;DHT22;41913;51.030;3.706;2023-04-29T08:03:33;18.50;82.30
56046;DHT22;41913;51.030;3.706;2023-04-29T08:06:02;18.40;82.30
56046;DHT22;41913;51.030;3.706;2023-04-29T08:08:30;18.40;82.20
56046;DHT22;41913;51.030;3.706;2023-04-29T08:10:56;18.40;82.20
56046;DHT22;41913;51.030;3.706;2023-04-29T08:13:22;18.40;82.10
56046;DHT22;41913;51.030;3.706;2023-04-29T08:15:48;18.40;82.20
56046;DHT22;41913;51.030;3.706;2023-04-29T08:18:13;18.40;82.10
56046;DHT22;41913;51.030;3.706;2023-04-29T08:20:39;18.40;82.10
56046;DHT22;41913;51.030;3.706;2023-04-29T08:23:06;18.40;82.00
56046;DHT22;41913;51.030;3.706;2023-04-29T08:25:31;18.30;81.80
56046;DHT22;41913;51.030;3.706;2023-04-29T08:27:57;18.30;81.60
56046;DHT22;41913;51.030;3.706;2023-04-29T08:30:23;18.30;81.50
56046;DHT22;41913;51.030;3.706;2023-04-29T08:32:49;18.20;81.40
56046;DHT22;41913;51.030;3.706;2023-04-29T08:35:15;18.20;81.40
56046;DHT22;41913;51.030;3.706;2023-04-29T08:37:41;18.10;81.20
56046;DHT22;41913;51.030;3.706;2023-04-29T08:40:08;18.10;81.10
56046;DHT22;41913;51.030;3.706;2023-04-29T08:42:35;18.10;81.10
56046;DHT22;41913;51.030;3.706;2023-04-29T08:45:02;18.10;81.00
56046;DHT22;41913;51.030;3.706;2023-04-29T08:47:35;18.00;80.80
56046;DHT22;41913;51.030;3.706;2023-04-29T08:50:04;18.00;80.80
56046;DHT22;41913;51.030;3.706;2023-04-29T08:52:31;17.90;80.50
56046;DHT22;41913;51.030;3.706;2023-04-29T08:55:00;17.90;80.80
56046;DHT22;41913;51.030;3.706;2023-04-29T08:57:34;17.90;80.80
56046;DHT22;41913;51.030;3.706;2023-04-29T09:00:08;17.90;80.80
56046;DHT22;41913;51.030;3.706;2023-04-29T09:02:42;18.00;80.80
56046;DHT22;41913;51.030;3.706;2023-04-29T09:05:09;17.90;80.70
56046;DHT22;41913;51.030;3.706;2023-04-29T09:07:39;18.00;80.80
56046;DHT22;41913;51.030;3.706;2023-04-29T09:10:06;17.90;80.70
56046;DHT22;41913;51.030;3.706;2023-04-29T09:12:32;17.90;80.70
56046;DHT22;41913;51.030;3.706;2023-04-29T09:14:57;17.90;80.70
56046;DHT22;41913;51.030;3.706;2023-04-29T09:17:45;18.00;80.80
56046;DHT22;41913;51.030;3.706;2023-04-29T09:22:52;18.00;80.70
56046;DHT22;41913;51.030;3.706;2023-04-29T09:25:18;18.00;80.60
56046;DHT22;41913;51.030;3.706;2023-04-29T09:27:44;18.00;80.60
56046;DHT22;41913;51.030;3.706;2023-04-29T09:30:10;18.00;80.50
56046;DHT22;41913;51.030;3.706;2023-04-29T09:32:41;18.00;80.40
56046;DHT22;41913;51.030;3.706;2023-04-29T09:35:24;18.00;80.40
56046;DHT22;41913;51.030;3.706;2023-04-29T09:37:51;17.90;80.30
56046;DHT22;41913;51.030;3.706;2023-04-29T09:40:32;17.90;80.30
56046;DHT22;41913;51.030;3.706;2023-04-29T09:42:59;18.00;80.40
56046;DHT22;41913;51.030;3.706;2023-04-29T09:45:41;18.00;80.30
56046;DHT22;41913;51.030;3.706;2023-04-29T09:48:08;17.90;80.20
56046;DHT22;41913;51.030;3.706;2023-04-29T09:50:35;17.90;80.20
56046;DHT22;41913;51.030;3.706;2023-04-29T09:53:07;17.90;80.20
56046;DHT22;41913;51.030;3.706;2023-04-29T09:58:31;17.80;80.10
56046;DHT22;41913;51.030;3.706;2023-04-29T10:01:02;17.80;80.00
56046;DHT22;41913;51.030;3.706;2023-04-29T10:03:32;17.80;80.00
56046;DHT22;41913;51.030;3.706;2023-04-29T10:06:00;17.70;79.90
56046;DHT22;41913;51.030;3.706;2023-04-29T10:08:28;17.70;80.00
56046;DHT22;41913;51.030;3.706;2023-04-29T10:10:56;17.70;80.00
56046;DHT22;41913;51.030;3.706;2023-04-29T10:13:27;17.60;80.10
56046;DHT22;41913;51.030;3.706;2023-04-29T10:16:43;17.70;80.40
56046;DHT22;41913;51.030;3.706;2023-04-29T10:18:52;17.70;80.60
56046;DHT22;41913;51.030;3.706;2023-04-29T10:21:23;17.70;80.90
56046;DHT22;41913;51.030;3.706;2023-04-29T10:23:52;17.80;81.40
56046;DHT22;41913;51.030;3.706;2023-04-29T10:26:19;17.80;82.10
56046;DHT22;41913;51.030;3.706;2023-04-29T10:28:46;17.90;82.60
56046;DHT22;41913;51.030;3.706;2023-04-29T10:31:17;17.90;82.90
56046;DHT22;41913;51.030;3.706;2023-04-29T10:33:46;17.90;83.00
56046;DHT22;41913;51.030;3.706;2023-04-29T10:36:12;17.90;83.00
56046;DHT22;41913;51.030;3.706;2023-04-29T10:38:44;18.00;83.10
56046;DHT22;41913;51.030;3.706;2023-04-29T10:41:20;18.00;83.10
56046;DHT22;41913;51.030;3.706;2023-04-29T10:43:52;18.00;83.20
56046;DHT22;41913;51.030;3.706;2023-04-29T10:46:22;18.10;83.20
56046;DHT22;41913;51.030;3.706;2023-04-29T10:48:50;18.10;83.10
56046;DHT22;41913;51.030;3.706;2023-04-29T10:54:09;18.10;83.20
56046;DHT22;41913;51.030;3.706;2023-04-29T10:59:13;18.20;83.40
56046;DHT22;41913;51.030;3.706;2023-04-29T11:01:48;18.30;85.40
56046;DHT22;41913;51.030;3.706;2023-04-29T11:04:16;18.40;85.00
56046;DHT22;41913;51.030;3.706;2023-04-29T11:06:56;18.50;84.60
56046;DHT22;41913;51.030;3.706;2023-04-29T11:09:29;18.50;84.30
56046;DHT22;41913;51.030;3.706;2023-04-29T11:17:02;18.60;84.10
56046;DHT22;41913;51.030;3.706;2023-04-29T11:19:33;18.60;84.00
56046;DHT22;41913;51.030;3.706;2023-04-29T11:24:55;18.60;83.80
56046;DHT22;41913;51.030;3.706;2023-04-29T11:27:24;18.60;83.80
56046;DHT22;41913;51.030;3.706;2023-04-29T11:29:54;18.70;83.90
56046;DHT22;41913;51.030;3.706;2023-04-29T11:32:27;18.70;83.90
56046;DHT22;41913;51.030;3.706;2023-04-29T11:34:53;18.70;83.90
56046;DHT22;41913;51.030;3.706;2023-04-29T11:37:24;18.70;83.90
56046;DHT22;41913;51.030;3.706;2023-04-29T11:39:50;18.80;83.90
56046;DHT22;41913;51.030;3.706;2023-04-29T11:42:20;18.80;84.00
56046;DHT22;41913;51.030;3.706;2023-04-29T11:44:49;18.80;84.00
56046;DHT22;41913;51.030;3.706;2023-04-29T11:47:16;18.80;84.00
56046;DHT22;41913;51.030;3.706;2023-04-29T11:49:42;18.90;84.10
56046;DHT22;41913;51.030;3.706;2023-04-29T11:52:08;18.90;84.10
56046;DHT22;41913;51.030;3.706;2023-04-29T11:54:34;18.90;84.10
56046;DHT22;41913;51.030;3.706;2023-04-29T11:57:00;19.00;84.20
56046;DHT22;41913;51.030;3.706;2023-04-29T11:59:32;19.00;84.30
56046;DHT22;41913;51.030;3.706;2023-04-29T12:01:59;19.10;84.40
56046;DHT22;41913;51.030;3.706;2023-04-29T12:04:25;19.10;84.40
56046;DHT22;41913;51.030;3.706;2023-04-29T12:06:52;19.20;84.60
56046;DHT22;41913;51.030;3.706;2023-04-29T12:09:18;19.30;84.60
56046;DHT22;41913;51.030;3.706;2023-04-29T12:11:44;19.40;84.60
56046;DHT22;41913;51.030;3.706;2023-04-29T12:14:12;19.50;84.60
56046;DHT22;41913;51.030;3.706;2023-04-29T12:16:39;19.60;84.60
56046;DHT22;41913;51.030;3.706;2023-04-29T12:19:04;19.70;84.60
56046;DHT22;41913;51.030;3.706;2023-04-29T12:21:32;19.80;85.10
56046;DHT22;41913;51.030;3.706;2023-04-29T12:23:58;19.90;84.40
56046;DHT22;41913;51.030;3.706;2023-04-29T12:26:29;20.10;84.30
56046;DHT22;41913;51.030;3.706;2023-04-29T12:28:57;20.20;84.10
56046;DHT22;41913;51.030;3.706;2023-04-29T12:31:32;20.40;84.00
56046;DHT22;41913;51.030;3.706;2023-04-29T12:33:59;20.50;83.80
56046;DHT22;41913;51.030;3.706;2023-04-29T12:36:27;20.70;83.60
56046;DHT22;41913;51.030;3.706;2023-04-29T12:38:53;20.80;83.40
56046;DHT22;41913;51.030;3.706;2023-04-29T12:41:38;20.90;83.20
56046;DHT22;41913;51.030;3.706;2023-04-29T12:44:05;21.10;83.10
56046;DHT22;41913;51.030;3.706;2023-04-29T12:46:36;21.20;82.90
56046;DHT22;41913;51.030;3.706;2023-04-29T12:49:02;21.30;82.60
56046;DHT22;41913;51.030;3.706;2023-04-29T12:51:30;21.40;82.40
56046;DHT22;41913;51.030;3.706;2023-04-29T12:53:58;21.50;82.30
56046;DHT22;41913;51.030;3.706;2023-04-29T12:56:24;21.60;82.10
56046;DHT22;41913;51.030;3.706;2023-04-29T12:58:50;21.70;82.00
56046;DHT22;41913;51.030;3.706;2023-04-29T13:01:16;21.80;81.90
56046;DHT22;41913;51.030;3.706;2023-04-29T13:03:42;21.90;81.80
56046;DHT22;41913;51.030;3.706;2023-04-29T13:06:08;21.90;81.40
56046;DHT22;41913;51.030;3.706;2023-04-29T13:08:34;22.00;81.10
56046;DHT22;41913;51.030;3.706;2023-04-29T13:11:00;22.00;80.70
56046;DHT22;41913;51.030;3.706;2023-04-29T13:13:26;22.00;80.70
56046;DHT22;41913;51.030;3.706;2023-04-29T13:15:52;22.00;80.70
56046;DHT22;41913;51.030;3.706;2023-04-29T13:18:17;22.10;80.80
56046;DHT22;41913;51.030;3.706;2023-04-29T13:20:43;22.00;80.80
56046;DHT22;41913;51.030;3.706;2023-04-29T13:23:10;22.00;80.80
56046;DHT22;41913;51.030;3.706;2023-04-29T13:25:36;21.90;80.70
56046;DHT22;41913;51.030;3.706;2023-04-29T13:28:02;21.90;80.80
56046;DHT22;41913;51.030;3.706;2023-04-29T13:30:29;21.80;80.80
56046;DHT22;41913;51.030;3.706;2023-04-29T13:32:56;21.70;80.70
56046;DHT22;41913;51.030;3.706;2023-04-29T13:35:21;21.70;80.70
56046;DHT22;41913;51.030;3.706;2023-04-29T13:37:47;21.50;80.80
56046;DHT22;41913;51.030;3.706;2023-04-29T13:40:13;21.40;81.00
56046;DHT22;41913;51.030;3.706;2023-04-29T13:42:39;21.40;81.20
56046;DHT22;41913;51.030;3.706;2023-04-29T13:45:05;21.30;81.30
56046;DHT22;41913;51.030;3.706;2023-04-29T13:47:31;21.20;81.50
56046;DHT22;41913;51.030;3.706;2023-04-29T13:49:56;21.10;81.50
56046;DHT22;41913;51.030;3.706;2023-04-29T13:52:22;21.00;81.70
56046;DHT22;41913;51.030;3.706;2023-04-29T13:54:48;20.90;81.90
56046;DHT22;41913;51.030;3.706;2023-04-29T13:57:13;20.80;82.00
56046;DHT22;41913;51.030;3.706;2023-04-29T13:59:39;20.70;82.20
56046;DHT22;41913;51.030;3.706;2023-04-29T14:02:05;20.60;82.30
56046;DHT22;41913;51.030;3.706;2023-04-29T14:04:31;20.50;83.00
56046;DHT22;41913;51.030;3.706;2023-04-29T14:06:56;20.40;82.50
56046;DHT22;41913;51.030;3.706;2023-04-29T14:09:22;20.40;82.70
56046;DHT22;41913;51.030;3.706;2023-04-29T14:11:48;20.30;82.80
56046;DHT22;41913;51.030;3.706;2023-04-29T14:14:15;20.30;83.00
56046;DHT22;41913;51.030;3.706;2023-04-29T14:16:41;20.20;83.10
56046;DHT22;41913;51.030;3.706;2023-04-29T14:19:07;20.20;83.40
56046;DHT22;41913;51.030;3.706;2023-04-29T14:21:33;20.20;83.50
56046;DHT22;41913;51.030;3.706;2023-04-29T14:24:00;20.10;83.60
56046;DHT22;41913;51.030;3.706;2023-04-29T14:26:27;20.10;83.70
56046;DHT22;41913;51.030;3.706;2023-04-29T14:28:56;20.10;83.90
56046;DHT22;41913;51.030;3.706;2023-04-29T14:31:32;20.00;83.90
56046;DHT22;41913;51.030;3.706;2023-04-29T14:33:59;20.00;83.90
56046;DHT22;41913;51.030;3.706;2023-04-29T14:36:25;20.00;84.00
56046;DHT22;41913;51.030;3.706;2023-04-29T14:38:52;20.00;84.10
56046;DHT22;41913;51.030;3.706;2023-04-29T14:41:17;20.00;84.10
56046;DHT22;41913;51.030;3.706;2023-04-29T14:43:44;20.00;84.10
56046;DHT22;41913;51.030;3.706;2023-04-29T14:46:11;20.00;84.10
56046;DHT22;41913;51.030;3.706;2023-04-29T14:48:36;20.00;84.10
56046;DHT22;41913;51.030;3.706;2023-04-29T14:51:04;20.00;84.20
56046;DHT22;41913;51.030;3.706;2023-04-29T14:53:30;20.00;84.20
56046;DHT22;41913;51.030;3.706;2023-04-29T14:55:56;20.00;84.20
56046;DHT22;41913;51.030;3.706;2023-04-29T14:58:23;20.00;84.20
56046;DHT22;41913;51.030;3.706;2023-04-29T15:00:49;20.00;84.30
56046;DHT22;41913;51.030;3.706;2023-04-29T15:03:16;20.00;84.30
56046;DHT22;41913;51.030;3.706;2023-04-29T15:05:43;20.00;84.30
56046;DHT22;41913;51.030;3.706;2023-04-29T15:08:09;20.00;84.30
56046;DHT22;41913;51.030;3.706;2023-04-29T15:10:35;20.00;84.30
56046;DHT22;41913;51.030;3.706;2023-04-29T15:13:02;20.00;84.40
56046;DHT22;41913;51.030;3.706;2023-04-29T15:15:28;20.00;84.40
56046;DHT22;41913;51.030;3.706;2023-04-29T15:17:53;20.00;84.40
56046;DHT22;41913;51.030;3.706;2023-04-29T15:20:19;20.00;84.40
56046;DHT22;41913;51.030;3.706;2023-04-29T15:22:45;20.00;84.50
56046;DHT22;41913;51.030;3.706;2023-04-29T15:25:12;20.00;84.50
56046;DHT22;41913;51.030;3.706;2023-04-29T15:27:37;20.00;84.60
56046;DHT22;41913;51.030;3.706;2023-04-29T15:30:04;20.00;84.70
56046;DHT22;41913;51.030;3.706;2023-04-29T15:32:30;20.00;84.80
56046;DHT22;41913;51.030;3.706;2023-04-29T15:35:01;20.00;84.80
56046;DHT22;41913;51.030;3.706;2023-04-29T15:37:29;20.00;84.90
56046;DHT22;41913;51.030;3.706;2023-04-29T15:39:59;20.00;84.90
56046;DHT22;41913;51.030;3.706;2023-04-29T15:42:27;20.00;85.00
56046;DHT22;41913;51.030;3.706;2023-04-29T15:44:52;20.00;85.10
56046;DHT22;41913;51.030;3.706;2023-04-29T15:47:19;20.00;85.10
56046;DHT22;41913;51.030;3.706;2023-04-29T15:49:47;20.00;85.10
56046;DHT22;41913;51.030;3.706;2023-04-29T15:52:16;20.00;85.20
56046;DHT22;41913;51.030;3.706;2023-04-29T15:54:43;19.90;85.20
56046;DHT22;41913;51.030;3.706;2023-04-29T15:57:09;19.90;85.20
56046;DHT22;41913;51.030;3.706;2023-04-29T15:59:34;19.90;85.20
56046;DHT22;41913;51.030;3.706;2023-04-29T16:02:00;19.90;85.30
56046;DHT22;41913;51.030;3.706;2023-04-29T16:04:27;19.90;85.30
56046;DHT22;41913;51.030;3.706;2023-04-29T16:06:53;19.90;85.30